sensor_id;sensor_type;location;lat;lon;timestamp;P1;P2;P0
57884;PMS5003;43703;51.060;-0.086;2024-02-21T00:00:33;12;10;
57884;PMS5003;43703;51.060;-0.086;2024-02-21T00:02:58;5;5;
57884;PMS5003;43703;51.060;-0.086;2024-02-21T00:05:24;5;5;
57884;PMS5003;43703;51.060;-0.086;2024-02-21T00:07:49;7;7;
57884;PMS5003;43703;51.060;-0.086;2024-02-21T00:10:15;11;6;
57884;PMS5003;43703;51.060;-0.086;2024-02-21T00:12:41;7;6;
57884;PMS5003;43703;51.060;-0.086;2024-02-21T00:15:06;5;5;
57884;PMS5003;43703;51.060;-0.086;2024-02-21T00:17:30;10;5;
57884;PMS5003;43703;51.060;-0.086;2024-02-21T00:19:56;6;5;
57884;PMS5003;43703;51.060;-0.086;2024-02-21T00:22:22;10;7;
57884;PMS5003;43703;51.060;-0.086;2024-02-21T00:24:48;6;6;
57884;PMS5003;43703;51.060;-0.086;2024-02-21T00:27:13;4;4;
57884;PMS5003;43703;51.060;-0.086;2024-02-21T00:29:38;4;4;
57884;PMS5003;43703;51.060;-0.086;2024-02-21T00:32:05;8;6;
57884;PMS5003;43703;51.060;-0.086;2024-02-21T00:34:30;8;5;
57884;PMS5003;43703;51.060;-0.086;2024-02-21T00:36:56;5;5;
57884;PMS5003;43703;51.060;-0.086;2024-02-21T00:39:22;7;5;
57884;PMS5003;43703;51.060;-0.086;2024-02-21T00:41:47;6;6;
57884;PMS5003;43703;51.060;-0.086;2024-02-21T00:44:13;7;7;
57884;PMS5003;43703;51.060;-0.086;2024-02-21T00:46:39;5;4;
57884;PMS5003;43703;51.060;-0.086;2024-02-21T00:49:04;6;6;
57884;PMS5003;43703;51.060;-0.086;2024-02-21T00:51:30;9;6;
57884;PMS5003;43703;51.060;-0.086;2024-02-21T00:53:55;5;3;
57884;PMS5003;43703;51.060;-0.086;2024-02-21T00:56:21;9;9;
57884;PMS5003;43703;51.060;-0.086;2024-02-21T00:58:47;5;5;
57884;PMS5003;43703;51.060;-0.086;2024-02-21T01:01:13;6;6;
57884;PMS5003;43703;51.060;-0.086;2024-02-21T01:03:39;12;6;
57884;PMS5003;43703;51.060;-0.086;2024-02-21T01:06:04;9;9;
57884;PMS5003;43703;51.060;-0.086;2024-02-21T01:08:32;6;6;
57884;PMS5003;43703;51.060;-0.086;2024-02-21T01:10:54;11;9;
57884;PMS5003;43703;51.060;-0.086;2024-02-21T01:13:19;8;6;
57884;PMS5003;43703;51.060;-0.086;2024-02-21T01:15:46;7;7;
57884;PMS5003;43703;51.060;-0.086;2024-02-21T01:18:10;9;8;
57884;PMS5003;43703;51.060;-0.086;2024-02-21T01:20:36;6;6;
57884;PMS5003;43703;51.060;-0.086;2024-02-21T01:23:02;13;7;
57884;PMS5003;43703;51.060;-0.086;2024-02-21T01:25:27;7;6;
57884;PMS5003;43703;51.060;-0.086;2024-02-21T01:27:53;7;6;
57884;PMS5003;43703;51.060;-0.086;2024-02-21T01:30:19;6;6;
57884;PMS5003;43703;51.060;-0.086;2024-02-21T01:32:44;5;5;
57884;PMS5003;43703;51.060;-0.086;2024-02-21T01:35:09;8;7;
57884;PMS5003;43703;51.060;-0.086;2024-02-21T01:37:35;11;10;
57884;PMS5003;43703;51.060;-0.086;2024-02-21T01:40:01;7;5;
57884;PMS5003;43703;51.060;-0.086;2024-02-21T01:42:27;7;7;
57884;PMS5003;43703;51.060;-0.086;2024-02-21T01:44:52;8;6;
57884;PMS5003;43703;51.060;-0.086;2024-02-21T01:47:18;10;8;
57884;PMS5003;43703;51.060;-0.086;2024-02-21T01:49:44;10;9;
57884;PMS5003;43703;51.060;-0.086;2024-02-21T01:52:10;8;8;
57884;PMS5003;43703;51.060;-0.086;2024-02-21T01:54:36;8;7;
57884;PMS5003;43703;51.060;-0.086;2024-02-21T01:57:01;9;7;
57884;PMS5003;43703;51.060;-0.086;2024-02-21T01:59:27;4;4;
57884;PMS5003;43703;51.060;-0.086;2024-02-21T02:01:53;5;4;
57884;PMS5003;43703;51.060;-0.086;2024-02-21T02:04:19;10;7;
57884;PMS5003;43703;51.060;-0.086;2024-02-21T02:06:44;9;7;
57884;PMS5003;43703;51.060;-0.086;2024-02-21T02:09:09;8;5;
57884;PMS5003;43703;51.060;-0.086;2024-02-21T02:11:36;5;5;
57884;PMS5003;43703;51.060;-0.086;2024-02-21T02:13:59;7;7;
57884;PMS5003;43703;51.060;-0.086;2024-02-21T02:16:25;5;5;
57884;PMS5003;43703;51.060;-0.086;2024-02-21T02:18:51;6;5;
57884;PMS5003;43703;51.060;-0.086;2024-02-21T02:21:28;12;9;
57884;PMS5003;43703;51.060;-0.086;2024-02-21T02:23:41;12;7;
57884;PMS5003;43703;51.060;-0.086;2024-02-21T02:26:07;5;5;
57884;PMS5003;43703;51.060;-0.086;2024-02-21T02:28:33;6;6;
57884;PMS5003;43703;51.060;-0.086;2024-02-21T02:30:58;8;7;
57884;PMS5003;43703;51.060;-0.086;2024-02-21T02:33:24;9;7;
57884;PMS5003;43703;51.060;-0.086;2024-02-21T02:35:50;5;5;
57884;PMS5003;43703;51.060;-0.086;2024-02-21T02:38:15;7;6;
57884;PMS5003;43703;51.060;-0.086;2024-02-21T02:40:40;7;5;
57884;PMS5003;43703;51.060;-0.086;2024-02-21T02:43:05;8;5;
57884;PMS5003;43703;51.060;-0.086;2024-02-21T02:45:31;5;5;
57884;PMS5003;43703;51.060;-0.086;2024-02-21T02:47:56;8;5;
57884;PMS5003;43703;51.060;-0.086;2024-02-21T02:50:21;6;6;
57884;PMS5003;43703;51.060;-0.086;2024-02-21T02:52:46;6;6;
57884;PMS5003;43703;51.060;-0.086;2024-02-21T02:55:11;7;6;
57884;PMS5003;43703;51.060;-0.086;2024-02-21T02:57:36;6;6;
57884;PMS5003;43703;51.060;-0.086;2024-02-21T03:00:01;6;6;
57884;PMS5003;43703;51.060;-0.086;2024-02-21T03:02:27;7;5;
57884;PMS5003;43703;51.060;-0.086;2024-02-21T03:04:53;4;4;
57884;PMS5003;43703;51.060;-0.086;2024-02-21T03:07:19;7;5;
57884;PMS5003;43703;51.060;-0.086;2024-02-21T03:09:44;7;5;
57884;PMS5003;43703;51.060;-0.086;2024-02-21T03:12:09;6;6;
57884;PMS5003;43703;51.060;-0.086;2024-02-21T03:14:35;9;9;
57884;PMS5003;43703;51.060;-0.086;2024-02-21T03:17:00;7;5;
57884;PMS5003;43703;51.060;-0.086;2024-02-21T03:19:25;7;7;
57884;PMS5003;43703;51.060;-0.086;2024-02-21T03:21:51;7;6;
57884;PMS5003;43703;51.060;-0.086;2024-02-21T03:24:18;5;5;
57884;PMS5003;43703;51.060;-0.086;2024-02-21T03:26:42;6;4;
57884;PMS5003;43703;51.060;-0.086;2024-02-21T03:29:07;5;5;
57884;PMS5003;43703;51.060;-0.086;2024-02-21T03:31:33;8;6;
57884;PMS5003;43703;51.060;-0.086;2024-02-21T03:33:58;6;5;
57884;PMS5003;43703;51.060;-0.086;2024-02-21T03:36:23;8;7;
57884;PMS5003;43703;51.060;-0.086;2024-02-21T03:38:49;8;6;
57884;PMS5003;43703;51.060;-0.086;2024-02-21T03:41:15;6;6;
57884;PMS5003;43703;51.060;-0.086;2024-02-21T03:43:41;7;6;
57884;PMS5003;43703;51.060;-0.086;2024-02-21T03:46:06;6;6;
57884;PMS5003;43703;51.060;-0.086;2024-02-21T03:48:31;6;6;
57884;PMS5003;43703;51.060;-0.086;2024-02-21T03:50:56;6;6;
57884;PMS5003;43703;51.060;-0.086;2024-02-21T03:53:21;6;5;
57884;PMS5003;43703;51.060;-0.086;2024-02-21T03:55:46;7;7;
57884;PMS5003;43703;51.060;-0.086;2024-02-21T03:58:11;6;5;
57884;PMS5003;43703;51.060;-0.086;2024-02-21T04:00:37;6;5;
57884;PMS5003;43703;51.060;-0.086;2024-02-21T04:03:03;6;5;
57884;PMS5003;43703;51.060;-0.086;2024-02-21T04:05:28;6;6;
57884;PMS5003;43703;51.060;-0.086;2024-02-21T04:07:53;6;6;
57884;PMS5003;43703;51.060;-0.086;2024-02-21T04:10:18;4;4;
57884;PMS5003;43703;51.060;-0.086;2024-02-21T04:12:43;8;7;
57884;PMS5003;43703;51.060;-0.086;2024-02-21T04:15:09;8;8;
57884;PMS5003;43703;51.060;-0.086;2024-02-21T04:17:34;5;4;
57884;PMS5003;43703;51.060;-0.086;2024-02-21T04:20:01;6;6;
57884;PMS5003;43703;51.060;-0.086;2024-02-21T04:22:24;9;8;
57884;PMS5003;43703;51.060;-0.086;2024-02-21T04:24:49;7;6;
57884;PMS5003;43703;51.060;-0.086;2024-02-21T04:27:15;10;9;
57884;PMS5003;43703;51.060;-0.086;2024-02-21T04:29:40;6;6;
57884;PMS5003;43703;51.060;-0.086;2024-02-21T04:32:06;13;9;
57884;PMS5003;43703;51.060;-0.086;2024-02-21T04:34:30;7;7;
57884;PMS5003;43703;51.060;-0.086;2024-02-21T04:36:56;7;6;
57884;PMS5003;43703;51.060;-0.086;2024-02-21T04:39:22;7;6;
57884;PMS5003;43703;51.060;-0.086;2024-02-21T04:41:47;6;6;
57884;PMS5003;43703;51.060;-0.086;2024-02-21T04:44:12;9;9;
57884;PMS5003;43703;51.060;-0.086;2024-02-21T04:46:37;6;5;
57884;PMS5003;43703;51.060;-0.086;2024-02-21T04:49:03;5;5;
57884;PMS5003;43703;51.060;-0.086;2024-02-21T04:51:28;5;5;
57884;PMS5003;43703;51.060;-0.086;2024-02-21T04:53:53;8;6;
57884;PMS5003;43703;51.060;-0.086;2024-02-21T04:56:18;5;4;
57884;PMS5003;43703;51.060;-0.086;2024-02-21T04:58:43;10;5;
57884;PMS5003;43703;51.060;-0.086;2024-02-21T05:01:08;5;5;
57884;PMS5003;43703;51.060;-0.086;2024-02-21T05:03:33;6;5;
57884;PMS5003;43703;51.060;-0.086;2024-02-21T05:05:58;5;5;
57884;PMS5003;43703;51.060;-0.086;2024-02-21T05:08:23;6;6;
57884;PMS5003;43703;51.060;-0.086;2024-02-21T05:10:48;5;5;
57884;PMS5003;43703;51.060;-0.086;2024-02-21T05:13:14;8;5;
57884;PMS5003;43703;51.060;-0.086;2024-02-21T05:15:40;7;5;
57884;PMS5003;43703;51.060;-0.086;2024-02-21T05:18:05;5;5;
57884;PMS5003;43703;51.060;-0.086;2024-02-21T05:20:30;6;6;
57884;PMS5003;43703;51.060;-0.086;2024-02-21T05:22:55;7;7;
57884;PMS5003;43703;51.060;-0.086;2024-02-21T05:25:22;6;6;
57884;PMS5003;43703;51.060;-0.086;2024-02-21T05:27:46;7;5;
57884;PMS5003;43703;51.060;-0.086;2024-02-21T05:30:11;8;6;
57884;PMS5003;43703;51.060;-0.086;2024-02-21T05:32:40;5;5;
57884;PMS5003;43703;51.060;-0.086;2024-02-21T05:35:02;9;7;
57884;PMS5003;43703;51.060;-0.086;2024-02-21T05:37:27;4;4;
57884;PMS5003;43703;51.060;-0.086;2024-02-21T05:39:53;6;5;
57884;PMS5003;43703;51.060;-0.086;2024-02-21T05:42:18;7;7;
57884;PMS5003;43703;51.060;-0.086;2024-02-21T05:44:43;9;9;
57884;PMS5003;43703;51.060;-0.086;2024-02-21T05:47:08;7;6;
57884;PMS5003;43703;51.060;-0.086;2024-02-21T05:49:33;10;4;
57884;PMS5003;43703;51.060;-0.086;2024-02-21T05:51:58;5;5;
57884;PMS5003;43703;51.060;-0.086;2024-02-21T05:54:24;4;4;
57884;PMS5003;43703;51.060;-0.086;2024-02-21T05:56:49;8;6;
57884;PMS5003;43703;51.060;-0.086;2024-02-21T05:59:19;4;4;
57884;PMS5003;43703;51.060;-0.086;2024-02-21T06:01:40;4;4;
57884;PMS5003;43703;51.060;-0.086;2024-02-21T06:04:05;5;4;
57884;PMS5003;43703;51.060;-0.086;2024-02-21T06:06:31;3;3;
57884;PMS5003;43703;51.060;-0.086;2024-02-21T06:08:56;4;3;
57884;PMS5003;43703;51.060;-0.086;2024-02-21T06:11:22;6;4;
57884;PMS5003;43703;51.060;-0.086;2024-02-21T06:13:47;5;3;
57884;PMS5003;43703;51.060;-0.086;2024-02-21T06:16:12;4;4;
57884;PMS5003;43703;51.060;-0.086;2024-02-21T06:18:38;3;3;
57884;PMS5003;43703;51.060;-0.086;2024-02-21T06:21:03;4;3;
57884;PMS5003;43703;51.060;-0.086;2024-02-21T06:23:28;2;2;
57884;PMS5003;43703;51.060;-0.086;2024-02-21T06:25:53;6;5;
57884;PMS5003;43703;51.060;-0.086;2024-02-21T06:28:18;5;5;
57884;PMS5003;43703;51.060;-0.086;2024-02-21T06:30:44;5;3;
57884;PMS5003;43703;51.060;-0.086;2024-02-21T06:33:09;3;3;
57884;PMS5003;43703;51.060;-0.086;2024-02-21T06:35:34;4;4;
57884;PMS5003;43703;51.060;-0.086;2024-02-21T06:37:59;3;3;
57884;PMS5003;43703;51.060;-0.086;2024-02-21T06:40:24;5;5;
57884;PMS5003;43703;51.060;-0.086;2024-02-21T06:42:50;4;4;
57884;PMS5003;43703;51.060;-0.086;2024-02-21T06:45:15;6;6;
57884;PMS5003;43703;51.060;-0.086;2024-02-21T06:47:41;3;3;
57884;PMS5003;43703;51.060;-0.086;2024-02-21T06:50:07;6;6;
57884;PMS5003;43703;51.060;-0.086;2024-02-21T06:52:32;3;3;
57884;PMS5003;43703;51.060;-0.086;2024-02-21T06:54:58;5;5;
57884;PMS5003;43703;51.060;-0.086;2024-02-21T06:57:23;4;4;
57884;PMS5003;43703;51.060;-0.086;2024-02-21T06:59:48;7;4;
57884;PMS5003;43703;51.060;-0.086;2024-02-21T07:02:13;6;4;
57884;PMS5003;43703;51.060;-0.086;2024-02-21T07:04:39;4;4;
57884;PMS5003;43703;51.060;-0.086;2024-02-21T07:07:04;5;3;
57884;PMS5003;43703;51.060;-0.086;2024-02-21T07:09:33;4;4;
57884;PMS5003;43703;51.060;-0.086;2024-02-21T07:11:55;7;7;
57884;PMS5003;43703;51.060;-0.086;2024-02-21T07:14:20;5;5;
57884;PMS5003;43703;51.060;-0.086;2024-02-21T07:16:45;4;4;
57884;PMS5003;43703;51.060;-0.086;2024-02-21T07:19:11;8;7;
57884;PMS5003;43703;51.060;-0.086;2024-02-21T07:21:36;5;5;
57884;PMS5003;43703;51.060;-0.086;2024-02-21T07:24:02;6;6;
57884;PMS5003;43703;51.060;-0.086;2024-02-21T07:26:27;5;5;
57884;PMS5003;43703;51.060;-0.086;2024-02-21T07:28:52;9;9;
57884;PMS5003;43703;51.060;-0.086;2024-02-21T07:31:17;7;7;
57884;PMS5003;43703;51.060;-0.086;2024-02-21T07:33:42;8;8;
57884;PMS5003;43703;51.060;-0.086;2024-02-21T07:36:07;6;6;
57884;PMS5003;43703;51.060;-0.086;2024-02-21T07:38:32;8;6;
57884;PMS5003;43703;51.060;-0.086;2024-02-21T07:40:58;8;8;
57884;PMS5003;43703;51.060;-0.086;2024-02-21T07:43:23;6;6;
57884;PMS5003;43703;51.060;-0.086;2024-02-21T07:45:48;7;7;
57884;PMS5003;43703;51.060;-0.086;2024-02-21T07:48:13;6;5;
57884;PMS5003;43703;51.060;-0.086;2024-02-21T07:50:38;5;5;
57884;PMS5003;43703;51.060;-0.086;2024-02-21T07:53:04;5;5;
57884;PMS5003;43703;51.060;-0.086;2024-02-21T07:55:30;5;5;
57884;PMS5003;43703;51.060;-0.086;2024-02-21T07:57:55;5;5;
57884;PMS5003;43703;51.060;-0.086;2024-02-21T08:00:21;6;6;
57884;PMS5003;43703;51.060;-0.086;2024-02-21T08:02:47;6;5;
57884;PMS5003;43703;51.060;-0.086;2024-02-21T08:05:12;5;5;
57884;PMS5003;43703;51.060;-0.086;2024-02-21T08:07:37;4;4;
57884;PMS5003;43703;51.060;-0.086;2024-02-21T08:10:04;5;5;
57884;PMS5003;43703;51.060;-0.086;2024-02-21T08:12:29;7;5;
57884;PMS5003;43703;51.060;-0.086;2024-02-21T08:14:55;7;5;
57884;PMS5003;43703;51.060;-0.086;2024-02-21T08:17:21;7;5;
57884;PMS5003;43703;51.060;-0.086;2024-02-21T08:19:46;4;4;
57884;PMS5003;43703;51.060;-0.086;2024-02-21T08:22:12;4;3;
57884;PMS5003;43703;51.060;-0.086;2024-02-21T08:24:38;8;4;
57884;PMS5003;43703;51.060;-0.086;2024-02-21T08:27:04;5;5;
57884;PMS5003;43703;51.060;-0.086;2024-02-21T08:29:28;5;5;
57884;PMS5003;43703;51.060;-0.086;2024-02-21T08:31:54;4;3;
57884;PMS5003;43703;51.060;-0.086;2024-02-21T08:34:20;7;6;
57884;PMS5003;43703;51.060;-0.086;2024-02-21T08:36:46;4;4;
57884;PMS5003;43703;51.060;-0.086;2024-02-21T08:39:11;6;4;
57884;PMS5003;43703;51.060;-0.086;2024-02-21T08:41:36;4;4;
57884;PMS5003;43703;51.060;-0.086;2024-02-21T08:44:02;4;4;
57884;PMS5003;43703;51.060;-0.086;2024-02-21T08:46:27;6;6;
57884;PMS5003;43703;51.060;-0.086;2024-02-21T08:48:53;4;4;
57884;PMS5003;43703;51.060;-0.086;2024-02-21T08:51:19;7;4;
57884;PMS5003;43703;51.060;-0.086;2024-02-21T08:53:44;6;5;
57884;PMS5003;43703;51.060;-0.086;2024-02-21T08:56:10;5;4;
57884;PMS5003;43703;51.060;-0.086;2024-02-21T08:58:36;7;5;
57884;PMS5003;43703;51.060;-0.086;2024-02-21T09:01:01;3;3;
57884;PMS5003;43703;51.060;-0.086;2024-02-21T09:03:27;6;5;
57884;PMS5003;43703;51.060;-0.086;2024-02-21T09:05:52;3;3;
57884;PMS5003;43703;51.060;-0.086;2024-02-21T09:08:18;3;3;
57884;PMS5003;43703;51.060;-0.086;2024-02-21T09:10:44;6;5;
57884;PMS5003;43703;51.060;-0.086;2024-02-21T09:13:09;4;4;
57884;PMS5003;43703;51.060;-0.086;2024-02-21T09:15:34;5;3;
57884;PMS5003;43703;51.060;-0.086;2024-02-21T09:17:59;3;3;
57884;PMS5003;43703;51.060;-0.086;2024-02-21T09:20:25;2;2;
57884;PMS5003;43703;51.060;-0.086;2024-02-21T09:22:50;4;4;
57884;PMS5003;43703;51.060;-0.086;2024-02-21T09:25:15;4;3;
57884;PMS5003;43703;51.060;-0.086;2024-02-21T09:27:40;4;2;
57884;PMS5003;43703;51.060;-0.086;2024-02-21T09:30:05;1;1;
57884;PMS5003;43703;51.060;-0.086;2024-02-21T09:32:30;8;6;
57884;PMS5003;43703;51.060;-0.086;2024-02-21T09:34:56;5;3;
57884;PMS5003;43703;51.060;-0.086;2024-02-21T09:37:22;4;2;
57884;PMS5003;43703;51.060;-0.086;2024-02-21T09:39:48;2;2;
57884;PMS5003;43703;51.060;-0.086;2024-02-21T09:42:13;6;5;
57884;PMS5003;43703;51.060;-0.086;2024-02-21T09:44:39;3;3;
57884;PMS5003;43703;51.060;-0.086;2024-02-21T09:47:06;2;2;
57884;PMS5003;43703;51.060;-0.086;2024-02-21T09:49:31;1;1;
57884;PMS5003;43703;51.060;-0.086;2024-02-21T09:51:57;4;4;
57884;PMS5003;43703;51.060;-0.086;2024-02-21T09:54:23;2;0;
57884;PMS5003;43703;51.060;-0.086;2024-02-21T09:56:48;4;4;
57884;PMS5003;43703;51.060;-0.086;2024-02-21T09:59:14;4;2;
57884;PMS5003;43703;51.060;-0.086;2024-02-21T10:01:41;5;3;
57884;PMS5003;43703;51.060;-0.086;2024-02-21T10:04:06;3;3;
57884;PMS5003;43703;51.060;-0.086;2024-02-21T10:06:32;4;4;
57884;PMS5003;43703;51.060;-0.086;2024-02-21T10:08:57;4;4;
57884;PMS5003;43703;51.060;-0.086;2024-02-21T10:11:23;3;2;
57884;PMS5003;43703;51.060;-0.086;2024-02-21T10:13:49;3;2;
57884;PMS5003;43703;51.060;-0.086;2024-02-21T10:16:15;5;5;
57884;PMS5003;43703;51.060;-0.086;2024-02-21T10:18:40;5;2;
57884;PMS5003;43703;51.060;-0.086;2024-02-21T10:21:06;1;1;
57884;PMS5003;43703;51.060;-0.086;2024-02-21T10:28:23;3;3;
57884;PMS5003;43703;51.060;-0.086;2024-02-21T10:30:49;2;2;
57884;PMS5003;43703;51.060;-0.086;2024-02-21T10:33:15;2;2;
57884;PMS5003;43703;51.060;-0.086;2024-02-21T10:35:41;2;2;
57884;PMS5003;43703;51.060;-0.086;2024-02-21T10:38:06;1;1;
57884;PMS5003;43703;51.060;-0.086;2024-02-21T10:40:32;3;3;
57884;PMS5003;43703;51.060;-0.086;2024-02-21T10:42:59;1;1;
57884;PMS5003;43703;51.060;-0.086;2024-02-21T10:45:27;2;2;
57884;PMS5003;43703;51.060;-0.086;2024-02-21T10:47:51;2;2;
57884;PMS5003;43703;51.060;-0.086;2024-02-21T10:50:16;1;1;
57884;PMS5003;43703;51.060;-0.086;2024-02-21T10:52:45;3;2;
57884;PMS5003;43703;51.060;-0.086;2024-02-21T10:55:09;4;4;
57884;PMS5003;43703;51.060;-0.086;2024-02-21T10:57:33;2;2;
57884;PMS5003;43703;51.060;-0.086;2024-02-21T10:59:59;2;2;
57884;PMS5003;43703;51.060;-0.086;2024-02-21T11:02:26;3;1;
57884;PMS5003;43703;51.060;-0.086;2024-02-21T11:04:50;2;2;
57884;PMS5003;43703;51.060;-0.086;2024-02-21T11:07:16;1;1;
57884;PMS5003;43703;51.060;-0.086;2024-02-21T11:09:50;1;1;
57884;PMS5003;43703;51.060;-0.086;2024-02-21T11:12:12;3;1;
57884;PMS5003;43703;51.060;-0.086;2024-02-21T11:14:34;1;1;
57884;PMS5003;43703;51.060;-0.086;2024-02-21T11:16:59;2;2;
57884;PMS5003;43703;51.060;-0.086;2024-02-21T11:19:26;2;2;
57884;PMS5003;43703;51.060;-0.086;2024-02-21T11:21:51;2;2;
57884;PMS5003;43703;51.060;-0.086;2024-02-21T11:26:43;3;2;
57884;PMS5003;43703;51.060;-0.086;2024-02-21T11:29:08;0;0;
57884;PMS5003;43703;51.060;-0.086;2024-02-21T11:34:00;2;2;
57884;PMS5003;43703;51.060;-0.086;2024-02-21T11:36:26;3;1;
57884;PMS5003;43703;51.060;-0.086;2024-02-21T11:38:52;3;3;
57884;PMS5003;43703;51.060;-0.086;2024-02-21T11:41:18;0;0;
57884;PMS5003;43703;51.060;-0.086;2024-02-21T11:43:43;1;1;
57884;PMS5003;43703;51.060;-0.086;2024-02-21T11:46:09;4;3;
57884;PMS5003;43703;51.060;-0.086;2024-02-21T11:48:35;1;1;
57884;PMS5003;43703;51.060;-0.086;2024-02-21T11:51:01;3;2;
57884;PMS5003;43703;51.060;-0.086;2024-02-21T11:53:27;1;1;
57884;PMS5003;43703;51.060;-0.086;2024-02-21T11:55:53;1;1;
57884;PMS5003;43703;51.060;-0.086;2024-02-21T11:58:18;2;2;
57884;PMS5003;43703;51.060;-0.086;2024-02-21T12:00:44;2;2;
57884;PMS5003;43703;51.060;-0.086;2024-02-21T12:03:13;2;2;
57884;PMS5003;43703;51.060;-0.086;2024-02-21T12:05:36;2;2;
57884;PMS5003;43703;51.060;-0.086;2024-02-21T12:08:02;1;1;
57884;PMS5003;43703;51.060;-0.086;2024-02-21T12:10:28;3;2;
57884;PMS5003;43703;51.060;-0.086;2024-02-21T12:12:54;1;1;
57884;PMS5003;43703;51.060;-0.086;2024-02-21T12:15:20;2;2;
57884;PMS5003;43703;51.060;-0.086;2024-02-21T12:17:45;6;3;
57884;PMS5003;43703;51.060;-0.086;2024-02-21T12:20:11;2;1;
57884;PMS5003;43703;51.060;-0.086;2024-02-21T12:22:37;2;2;
57884;PMS5003;43703;51.060;-0.086;2024-02-21T12:25:03;5;3;
57884;PMS5003;43703;51.060;-0.086;2024-02-21T12:27:29;4;3;
57884;PMS5003;43703;51.060;-0.086;2024-02-21T12:29:55;2;2;
57884;PMS5003;43703;51.060;-0.086;2024-02-21T12:32:20;3;1;
57884;PMS5003;43703;51.060;-0.086;2024-02-21T12:34:46;1;1;
57884;PMS5003;43703;51.060;-0.086;2024-02-21T12:37:12;2;2;
57884;PMS5003;43703;51.060;-0.086;2024-02-21T12:39:38;1;1;
57884;PMS5003;43703;51.060;-0.086;2024-02-21T12:42:04;1;1;
57884;PMS5003;43703;51.060;-0.086;2024-02-21T12:44:30;2;2;
57884;PMS5003;43703;51.060;-0.086;2024-02-21T12:46:55;1;1;
57884;PMS5003;43703;51.060;-0.086;2024-02-21T12:49:21;1;1;
57884;PMS5003;43703;51.060;-0.086;2024-02-21T12:51:47;1;1;
57884;PMS5003;43703;51.060;-0.086;2024-02-21T12:54:13;1;1;
57884;PMS5003;43703;51.060;-0.086;2024-02-21T12:56:39;1;1;
57884;PMS5003;43703;51.060;-0.086;2024-02-21T12:59:05;2;0;
57884;PMS5003;43703;51.060;-0.086;2024-02-21T13:01:31;2;2;
57884;PMS5003;43703;51.060;-0.086;2024-02-21T13:03:56;3;3;
57884;PMS5003;43703;51.060;-0.086;2024-02-21T13:06:22;2;2;
57884;PMS5003;43703;51.060;-0.086;2024-02-21T13:08:48;4;2;
57884;PMS5003;43703;51.060;-0.086;2024-02-21T13:11:14;2;2;
57884;PMS5003;43703;51.060;-0.086;2024-02-21T13:13:40;3;3;
57884;PMS5003;43703;51.060;-0.086;2024-02-21T13:16:06;2;2;
57884;PMS5003;43703;51.060;-0.086;2024-02-21T13:18:31;3;3;
57884;PMS5003;43703;51.060;-0.086;2024-02-21T13:20:57;1;1;
57884;PMS5003;43703;51.060;-0.086;2024-02-21T13:23:23;2;2;
57884;PMS5003;43703;51.060;-0.086;2024-02-21T13:25:49;3;3;
57884;PMS5003;43703;51.060;-0.086;2024-02-21T13:28:15;1;1;
57884;PMS5003;43703;51.060;-0.086;2024-02-21T13:30:41;1;1;
57884;PMS5003;43703;51.060;-0.086;2024-02-21T13:33:07;1;1;
57884;PMS5003;43703;51.060;-0.086;2024-02-21T13:35:32;2;2;
57884;PMS5003;43703;51.060;-0.086;2024-02-21T13:37:58;0;0;
57884;PMS5003;43703;51.060;-0.086;2024-02-21T13:40:24;1;1;
57884;PMS5003;43703;51.060;-0.086;2024-02-21T13:42:49;1;1;
57884;PMS5003;43703;51.060;-0.086;2024-02-21T13:45:15;1;1;
57884;PMS5003;43703;51.060;-0.086;2024-02-21T13:47:41;2;1;
57884;PMS5003;43703;51.060;-0.086;2024-02-21T13:50:07;2;2;
57884;PMS5003;43703;51.060;-0.086;2024-02-21T13:52:33;3;3;
57884;PMS5003;43703;51.060;-0.086;2024-02-21T13:54:59;1;1;
57884;PMS5003;43703;51.060;-0.086;2024-02-21T13:57:24;2;1;
57884;PMS5003;43703;51.060;-0.086;2024-02-21T13:59:50;1;1;
57884;PMS5003;43703;51.060;-0.086;2024-02-21T14:02:16;2;0;
57884;PMS5003;43703;51.060;-0.086;2024-02-21T14:04:42;5;2;
57884;PMS5003;43703;51.060;-0.086;2024-02-21T14:07:08;4;4;
57884;PMS5003;43703;51.060;-0.086;2024-02-21T14:09:33;3;1;
57884;PMS5003;43703;51.060;-0.086;2024-02-21T14:11:59;4;3;
57884;PMS5003;43703;51.060;-0.086;2024-02-21T14:14:24;1;1;
57884;PMS5003;43703;51.060;-0.086;2024-02-21T14:16:50;2;2;
57884;PMS5003;43703;51.060;-0.086;2024-02-21T14:19:16;2;1;
57884;PMS5003;43703;51.060;-0.086;2024-02-21T14:21:42;1;0;
57884;PMS5003;43703;51.060;-0.086;2024-02-21T14:24:08;2;2;
57884;PMS5003;43703;51.060;-0.086;2024-02-21T14:26:34;1;1;
57884;PMS5003;43703;51.060;-0.086;2024-02-21T14:28:59;1;1;
57884;PMS5003;43703;51.060;-0.086;2024-02-21T14:31:26;1;1;
57884;PMS5003;43703;51.060;-0.086;2024-02-21T14:33:51;3;2;
57884;PMS5003;43703;51.060;-0.086;2024-02-21T14:36:17;3;3;
57884;PMS5003;43703;51.060;-0.086;2024-02-21T14:38:43;3;3;
57884;PMS5003;43703;51.060;-0.086;2024-02-21T14:41:08;2;1;
57884;PMS5003;43703;51.060;-0.086;2024-02-21T14:43:34;1;1;
57884;PMS5003;43703;51.060;-0.086;2024-02-21T14:46:00;1;1;
57884;PMS5003;43703;51.060;-0.086;2024-02-21T14:48:26;2;1;
57884;PMS5003;43703;51.060;-0.086;2024-02-21T14:50:52;2;2;
57884;PMS5003;43703;51.060;-0.086;2024-02-21T14:53:18;1;1;
57884;PMS5003;43703;51.060;-0.086;2024-02-21T14:55:43;2;2;
57884;PMS5003;43703;51.060;-0.086;2024-02-21T14:58:09;1;1;
57884;PMS5003;43703;51.060;-0.086;2024-02-21T15:00:35;2;1;
57884;PMS5003;43703;51.060;-0.086;2024-02-21T15:03:01;1;1;
57884;PMS5003;43703;51.060;-0.086;2024-02-21T15:05:27;2;1;
57884;PMS5003;43703;51.060;-0.086;2024-02-21T15:07:52;5;3;
57884;PMS5003;43703;51.060;-0.086;2024-02-21T15:10:18;2;2;
57884;PMS5003;43703;51.060;-0.086;2024-02-21T15:12:44;1;1;
57884;PMS5003;43703;51.060;-0.086;2024-02-21T15:15:10;2;2;
57884;PMS5003;43703;51.060;-0.086;2024-02-21T15:17:36;1;1;
57884;PMS5003;43703;51.060;-0.086;2024-02-21T15:20:02;4;3;
57884;PMS5003;43703;51.060;-0.086;2024-02-21T15:22:27;3;2;
57884;PMS5003;43703;51.060;-0.086;2024-02-21T15:24:53;3;0;
57884;PMS5003;43703;51.060;-0.086;2024-02-21T15:27:19;3;3;
57884;PMS5003;43703;51.060;-0.086;2024-02-21T15:29:45;1;1;
57884;PMS5003;43703;51.060;-0.086;2024-02-21T15:32:11;2;2;
57884;PMS5003;43703;51.060;-0.086;2024-02-21T15:34:37;4;3;
57884;PMS5003;43703;51.060;-0.086;2024-02-21T15:37:03;4;3;
57884;PMS5003;43703;51.060;-0.086;2024-02-21T15:39:28;4;3;
57884;PMS5003;43703;51.060;-0.086;2024-02-21T15:41:54;1;1;
57884;PMS5003;43703;51.060;-0.086;2024-02-21T15:44:20;3;3;
57884;PMS5003;43703;51.060;-0.086;2024-02-21T15:46:46;4;2;
57884;PMS5003;43703;51.060;-0.086;2024-02-21T15:49:12;1;1;
57884;PMS5003;43703;51.060;-0.086;2024-02-21T15:51:37;1;1;
57884;PMS5003;43703;51.060;-0.086;2024-02-21T15:54:04;5;3;
57884;PMS5003;43703;51.060;-0.086;2024-02-21T15:56:29;1;1;
57884;PMS5003;43703;51.060;-0.086;2024-02-21T15:58:55;2;2;
57884;PMS5003;43703;51.060;-0.086;2024-02-21T16:01:21;4;3;
57884;PMS5003;43703;51.060;-0.086;2024-02-21T16:03:46;2;1;
57884;PMS5003;43703;51.060;-0.086;2024-02-21T16:06:12;4;3;
57884;PMS5003;43703;51.060;-0.086;2024-02-21T16:08:37;3;2;
57884;PMS5003;43703;51.060;-0.086;2024-02-21T16:11:03;10;8;
57884;PMS5003;43703;51.060;-0.086;2024-02-21T16:13:29;4;4;
57884;PMS5003;43703;51.060;-0.086;2024-02-21T16:15:55;5;5;
57884;PMS5003;43703;51.060;-0.086;2024-02-21T16:18:20;3;3;
57884;PMS5003;43703;51.060;-0.086;2024-02-21T16:20:46;2;2;
57884;PMS5003;43703;51.060;-0.086;2024-02-21T16:23:12;4;4;
57884;PMS5003;43703;51.060;-0.086;2024-02-21T16:25:37;0;0;
57884;PMS5003;43703;51.060;-0.086;2024-02-21T16:28:03;2;2;
57884;PMS5003;43703;51.060;-0.086;2024-02-21T16:30:29;3;2;